Terminal Aerodrome Forecast
Issued by NWS

Home | Current Version | Previous Version | Text Only | Print | Product List | Glossary On
Versions: 1 2 3 4 5 6 7 8 9 10 11 12 13 14 15 16 17 18 19 20 21 22 23 24 25 26 27 28
196
FTUS44 KFWD 282100 AAA
TAFDAL
TAF AMD
KDAL 282100Z 2821/2918 18010KT P6SM VCTS SCT060CB SCT120
      TEMPO 2822/2824 3SM TSRA BKN050CB
     FM290100 18009KT P6SM SCT060 SCT120=

USA.gov is the U.S. government's official web portal to all federal, state and local government web resources and services.